createdAt,value
2024-02-27T00:00:06.733Z,95041.13
2024-02-27T00:02:35.235Z,95038.47
2024-02-27T00:05:02.837Z,95043.19
2024-02-27T00:07:30.469Z,95038.72
2024-02-27T00:09:59.777Z,95044.03
2024-02-27T00:12:27.690Z,95036.31
2024-02-27T00:14:55.394Z,95042.66
2024-02-27T00:17:23.317Z,95039.22
2024-02-27T00:19:50.064Z,95027.81
2024-02-27T00:22:17.886Z,95028.88
2024-02-27T00:24:45.492Z,95036.81
2024-02-27T00:27:14.868Z,95034.16
2024-02-27T00:29:42.534Z,95042.38
2024-02-27T00:32:10.156Z,95046.06
2024-02-27T00:34:38.313Z,95038.91
2024-02-27T00:37:07.444Z,95033.59
2024-02-27T00:39:35.137Z,95030.16
2024-02-27T00:42:04.721Z,95026.72
2024-02-27T00:44:33.755Z,95025.91
2024-02-27T00:47:01.421Z,95034.91
2024-02-27T00:49:30.921Z,95037.31
2024-02-27T00:51:58.644Z,95040.22
2024-02-27T00:54:26.294Z,95029.31
2024-02-27T00:56:54.067Z,95032.19
2024-02-27T00:59:21.747Z,95036.47
2024-02-27T01:01:50.714Z,95033.03
2024-02-27T01:04:18.302Z,95032.19
2024-02-27T01:06:46.398Z,95038.56
2024-02-27T01:09:14.191Z,95046.75
2024-02-27T01:11:41.907Z,95038.00
2024-02-27T01:14:09.596Z,95042.25
2024-02-27T01:16:37.225Z,95032.94
2024-02-27T01:19:07.187Z,95037.44
2024-02-27T01:21:34.996Z,95039.06
2024-02-27T01:24:03.624Z,95029.25
2024-02-27T01:26:32.748Z,95035.84
2024-02-27T01:29:00.347Z,95039.06
2024-02-27T01:31:27.938Z,95040.34
2024-02-27T01:33:55.785Z,95047.75
2024-02-27T01:36:24.888Z,95049.34
2024-02-27T01:38:52.511Z,95044.31
2024-02-27T01:41:20.150Z,95037.66
2024-02-27T01:43:47.808Z,95044.56
2024-02-27T01:46:20.171Z,95045.59
2024-02-27T01:48:48.931Z,95042.16
2024-02-27T01:51:17.797Z,95048.25
2024-02-27T01:53:51.885Z,95053.53
2024-02-27T01:56:20.082Z,95054.03
2024-02-27T01:58:49.010Z,95056.44
2024-02-27T02:01:16.788Z,95055.91
2024-02-27T02:03:46.936Z,95056.69
2024-02-27T02:06:14.759Z,95053.50
2024-02-27T02:08:42.446Z,95054.28
2024-02-27T02:11:13.428Z,95063.00
2024-02-27T02:13:41.713Z,95059.81
2024-02-27T02:16:09.348Z,95061.69
2024-02-27T02:18:37.054Z,95059.03
2024-02-27T02:21:07.456Z,95060.63
2024-02-27T02:23:35.133Z,95061.69
2024-02-27T02:26:03.331Z,95065.63
2024-02-27T02:28:30.964Z,95054.25
2024-02-27T02:30:58.576Z,95054.25
2024-02-27T02:33:27.060Z,95065.06
2024-02-27T02:35:54.900Z,95064.81
2024-02-27T02:38:24.170Z,95061.34
2024-02-27T02:40:51.769Z,95069.53
2024-02-27T02:43:19.347Z,95061.59
2024-02-27T02:45:47.003Z,95074.06
2024-02-27T02:48:14.910Z,95073.50
2024-02-27T02:50:42.783Z,95075.09
2024-02-27T02:53:10.444Z,95084.09
2024-02-27T02:55:42.133Z,95093.88
2024-02-27T02:58:09.985Z,95083.53
2024-02-27T03:00:38.239Z,95079.03
2024-02-27T03:03:06.421Z,95093.06
2024-02-27T03:05:34.103Z,95095.19
2024-02-27T03:08:01.687Z,95098.63
2024-02-27T03:10:29.268Z,95103.91
2024-02-27T03:12:58.245Z,95103.91
2024-02-27T03:15:25.928Z,95103.38
2024-02-27T03:17:53.887Z,95104.16
2024-02-27T03:20:21.525Z,95114.75
2024-02-27T03:22:49.099Z,95123.75
2024-02-27T03:25:17.006Z,95129.03
2024-02-27T03:27:46.141Z,95129.28
2024-02-27T03:30:18.912Z,95129.53
2024-02-27T03:32:46.600Z,95134.81
2024-02-27T03:35:14.654Z,95128.72
2024-02-27T03:37:44.145Z,95132.97
2024-02-27T03:40:12.113Z,95137.72
2024-02-27T03:42:40.527Z,95122.88
2024-02-27T03:45:10.852Z,95112.81
2024-02-27T03:47:39.915Z,95123.66
2024-02-27T03:50:08.523Z,95127.38
2024-02-27T03:52:36.126Z,95130.25
2024-02-27T03:55:03.917Z,95132.91
2024-02-27T03:57:31.583Z,95138.19
2024-02-27T03:59:59.236Z,95152.22
2024-02-27T04:02:26.911Z,95153.25
2024-02-27T04:04:55.957Z,95171.78
2024-02-27T04:07:23.602Z,95177.06
2024-02-27T04:09:51.209Z,95186.09
2024-02-27T04:12:18.851Z,95182.84
2024-02-27T04:14:46.558Z,95200.91
2024-02-27T04:17:14.364Z,95200.34
2024-02-27T04:19:42.039Z,95214.38
2024-02-27T04:22:11.054Z,95216.22
2024-02-27T04:24:38.658Z,95222.31
2024-02-27T04:27:06.376Z,95219.66
2024-02-27T04:29:33.997Z,95222.56
2024-02-27T04:32:01.587Z,95228.09
2024-02-27T04:34:29.237Z,95225.44
2024-02-27T04:36:57.721Z,95230.72
2024-02-27T04:39:26.882Z,95233.38
2024-02-27T04:41:54.468Z,95236.84
2024-02-27T04:44:22.260Z,95241.56
2024-02-27T04:46:49.887Z,95245.81
2024-02-27T04:49:17.700Z,95239.97
2024-02-27T04:51:45.489Z,95237.34
2024-02-27T04:54:13.172Z,95227.78
2024-02-27T04:56:43.658Z,95232.03
2024-02-27T04:59:11.294Z,95227.78
2024-02-27T05:01:39.295Z,95219.03
2024-02-27T05:04:07.185Z,95208.47
2024-02-27T05:06:35.075Z,95211.09
2024-02-27T05:09:03.286Z,95221.69
2024-02-27T05:11:30.893Z,95216.66
2024-02-27T05:13:59.904Z,95217.69
2024-02-27T05:16:27.765Z,95208.72
2024-02-27T05:18:55.555Z,95204.44
2024-02-27T05:21:23.369Z,95214.25
2024-02-27T05:23:51.042Z,95219.53
2024-02-27T05:26:18.639Z,95222.97
2024-02-27T05:28:46.321Z,95220.56
2024-02-27T05:31:30.867Z,95228.25
2024-02-27T05:33:59.737Z,95228.50
2024-02-27T05:36:28.611Z,95237.22
2024-02-27T05:38:56.793Z,95244.38
2024-02-27T05:41:24.733Z,95238.53
2024-02-27T05:43:53.421Z,95239.31
2024-02-27T05:46:21.104Z,95244.63
2024-02-27T05:48:50.104Z,95250.16
2024-02-27T05:51:17.792Z,95250.97
2024-02-27T05:53:45.365Z,95256.25
2024-02-27T05:56:13.389Z,95249.34
2024-02-27T05:58:41.026Z,95251.22
2024-02-27T06:01:08.788Z,95258.31
2024-02-27T06:03:36.849Z,95266.25
2024-02-27T06:06:07.520Z,95264.69
2024-02-27T06:08:35.172Z,95267.09
2024-02-27T06:11:02.909Z,95273.41
2024-02-27T06:13:30.726Z,95283.19
2024-02-27T06:15:58.369Z,95281.34
2024-02-27T06:18:26.219Z,95279.97
2024-02-27T06:21:11.528Z,95283.19
2024-02-27T06:23:41.275Z,95285.25
2024-02-27T06:26:10.318Z,95292.66
2024-02-27T06:28:37.974Z,95293.13
2024-02-27T06:31:05.899Z,95295.22
2024-02-27T06:33:33.646Z,95294.63
2024-02-27T06:36:01.308Z,95288.31
2024-02-27T06:38:28.893Z,95285.44
2024-02-27T06:40:58.068Z,95286.47
2024-02-27T06:43:26.326Z,95280.94
2024-02-27T06:45:54.130Z,95291.28
2024-02-27T06:48:21.848Z,95284.41
2024-02-27T06:50:52.619Z,95284.63
2024-02-27T06:53:20.242Z,95289.69
2024-02-27T06:55:49.217Z,95296.56
2024-02-27T06:58:18.656Z,95303.47
2024-02-27T07:00:46.503Z,95305.88
2024-02-27T07:03:14.325Z,95311.16
2024-02-27T07:05:52.202Z,95311.97
2024-02-27T07:08:21.928Z,95321.50
2024-02-27T07:10:49.618Z,95324.94
2024-02-27T07:13:19.353Z,95324.41
2024-02-27T07:15:47.976Z,95334.97
2024-02-27T07:18:17.113Z,95340.81
2024-02-27T07:20:46.237Z,95346.59
2024-02-27T07:23:14.582Z,95351.66
2024-02-27T07:25:42.443Z,95354.28
2024-02-27T07:28:16.838Z,95351.53
2024-02-27T07:30:51.131Z,95363.28
2024-02-27T07:33:19.027Z,95360.34
2024-02-27T07:35:46.764Z,95368.78
2024-02-27T07:38:14.477Z,95370.38
2024-02-27T07:40:42.232Z,95368.53
2024-02-27T07:43:09.827Z,95357.34
2024-02-27T07:45:38.198Z,95361.09
2024-02-27T07:48:08.051Z,95371.84
2024-02-27T07:50:35.690Z,95364.81
2024-02-27T07:53:03.338Z,95372.91
2024-02-27T07:55:30.976Z,95371.72
2024-02-27T07:57:58.672Z,95372.97
2024-02-27T08:00:26.829Z,95373.59
2024-02-27T08:02:54.703Z,95382.44
2024-02-27T08:05:26.999Z,95384.63
2024-02-27T08:07:54.667Z,95385.97
2024-02-27T08:10:22.531Z,95385.53
2024-02-27T08:12:50.172Z,95382.19
2024-02-27T08:15:18.119Z,95385.41
2024-02-27T08:17:45.712Z,95388.09
2024-02-27T08:20:14.607Z,95380.44
2024-02-27T08:22:43.655Z,95381.28
2024-02-27T08:25:11.478Z,95382.94
2024-02-27T08:27:39.119Z,95375.81
2024-02-27T08:30:08.094Z,95374.47
2024-02-27T08:32:35.850Z,95370.78
2024-02-27T08:35:03.975Z,95365.75
2024-02-27T08:37:31.756Z,95358.03
2024-02-27T08:40:00.785Z,95355.97
2024-02-27T08:42:28.513Z,95349.38
2024-02-27T08:44:56.217Z,95346.75
2024-02-27T08:47:24.030Z,95342.56
2024-02-27T08:49:51.944Z,95348.94
2024-02-27T08:52:19.624Z,95351.06
2024-02-27T08:54:47.280Z,95347.63
2024-02-27T08:57:16.907Z,95346.28
2024-02-27T08:59:47.509Z,95352.16
2024-02-27T09:02:15.647Z,95342.84
2024-02-27T09:04:43.536Z,95342.34
2024-02-27T09:07:12.319Z,95341.31
2024-02-27T09:09:40.363Z,95347.72
2024-02-27T09:12:10.516Z,95347.47
2024-02-27T09:14:40.418Z,95359.69
2024-02-27T09:17:08.042Z,95363.97
2024-02-27T09:19:35.824Z,95364.50
2024-02-27T09:22:03.568Z,95361.84
2024-02-27T09:24:32.398Z,95364.75
2024-02-27T09:27:02.666Z,95363.69
2024-02-27T09:29:32.018Z,95369.78
2024-02-27T09:32:00.960Z,95362.59
2024-02-27T09:34:28.696Z,95373.56
2024-02-27T09:36:56.394Z,95361.84
2024-02-27T09:39:24.245Z,95372.72
2024-02-27T09:42:00.544Z,95378.59
2024-02-27T09:44:28.297Z,95384.72
2024-02-27T09:46:56.988Z,95387.66
2024-02-27T09:49:36.571Z,95386.59
2024-02-27T09:52:11.414Z,95399.06
2024-02-27T09:54:39.097Z,95404.88
2024-02-27T09:57:07.520Z,95409.41
2024-02-27T09:59:36.842Z,95414.47
2024-02-27T10:02:08.005Z,95413.97
2024-02-27T10:04:38.744Z,95415.56
2024-02-27T10:07:07.447Z,95422.47
2024-02-27T10:09:37.196Z,95430.19
2024-02-27T10:12:05.313Z,95442.69
2024-02-27T10:14:34.290Z,95440.84
2024-02-27T10:17:04.262Z,95441.09
2024-02-27T10:19:32.692Z,95444.56
2024-02-27T10:22:02.510Z,95438.44
2024-02-27T10:24:30.455Z,95445.34
2024-02-27T10:27:02.465Z,95437.38
2024-02-27T10:29:31.146Z,95433.69
2024-02-27T10:31:59.090Z,95442.97
2024-02-27T10:34:29.437Z,95431.59
2024-02-27T10:36:58.404Z,95435.31
2024-02-27T10:39:27.739Z,95442.47
2024-02-27T10:41:56.813Z,95445.94
2024-02-27T10:44:24.600Z,95441.69
2024-02-27T10:46:52.212Z,95441.97
2024-02-27T10:49:20.102Z,95445.41
2024-02-27T10:51:49.496Z,95440.66
2024-02-27T10:54:18.275Z,95435.88
2024-02-27T10:56:48.081Z,95438.53
2024-02-27T10:59:15.204Z,95441.19
2024-02-27T11:01:46.278Z,95434.00
2024-02-27T11:04:21.658Z,95440.41
2024-02-27T11:06:51.901Z,95437.75
2024-02-27T11:09:26.545Z,95436.94
2024-02-27T11:12:01.692Z,95430.81
2024-02-27T11:14:31.727Z,95443.06
2024-02-27T11:17:05.921Z,95434.81
2024-02-27T11:19:36.691Z,95426.84
2024-02-27T11:22:06.212Z,95435.38
2024-02-27T11:24:33.846Z,95433.50
2024-02-27T11:27:03.007Z,95419.66
2024-02-27T11:29:31.380Z,95421.28
2024-02-27T11:31:59.366Z,95411.69
2024-02-27T11:34:27.073Z,95397.03
2024-02-27T11:37:11.754Z,95404.47
2024-02-27T11:39:39.560Z,95398.09
2024-02-27T11:42:10.478Z,95394.34
2024-02-27T11:45:06.036Z,95388.25
2024-02-27T11:47:45.514Z,95383.44
2024-02-27T11:50:14.824Z,95382.66
2024-02-27T11:52:47.279Z,95387.16
2024-02-27T11:55:14.927Z,95385.56
2024-02-27T11:57:44.115Z,95375.97
2024-02-27T12:00:13.816Z,95379.69
2024-02-27T12:02:46.120Z,95374.09
2024-02-27T12:05:15.325Z,95380.50
2024-02-27T12:07:43.096Z,95386.59
2024-02-27T12:10:12.923Z,95402.84
2024-02-27T12:12:41.657Z,95399.13
2024-02-27T12:15:11.873Z,95408.72
2024-02-27T12:17:40.167Z,95400.75
2024-02-27T12:20:10.538Z,95414.03
2024-02-27T12:22:39.030Z,95420.16
2024-02-27T12:25:07.689Z,95435.59
2024-02-27T12:27:37.249Z,95430.81
2024-02-27T12:30:09.678Z,95438.00
2024-02-27T12:32:39.538Z,95448.63
2024-02-27T12:35:08.002Z,95443.06
2024-02-27T12:37:40.273Z,95447.56
2024-02-27T12:40:11.871Z,95443.84
2024-02-27T12:42:40.874Z,95449.16
2024-02-27T12:45:10.542Z,95442.81
2024-02-27T12:47:39.687Z,95438.28
2024-02-27T12:50:08.918Z,95430.31
2024-02-27T12:52:37.137Z,95427.38
2024-02-27T12:55:06.247Z,95421.28
2024-02-27T12:57:34.440Z,95422.63
2024-02-27T13:00:03.309Z,95417.31
2024-02-27T13:02:31.282Z,95409.06
2024-02-27T13:05:00.338Z,95419.72
2024-02-27T13:07:28.951Z,95413.34
2024-02-27T13:09:56.714Z,95421.31
2024-02-27T13:12:25.581Z,95424.50
2024-02-27T13:14:53.268Z,95425.25
2024-02-27T13:17:20.911Z,95416.97
2024-02-27T13:19:48.592Z,95415.63
2024-02-27T13:22:17.760Z,95409.78
2024-02-27T13:24:46.114Z,95409.25
2024-02-27T13:27:13.741Z,95410.03
2024-02-27T13:29:41.844Z,95413.72
2024-02-27T13:32:09.608Z,95421.44
2024-02-27T13:34:37.251Z,95417.22
2024-02-27T13:37:06.683Z,95408.41
2024-02-27T13:39:35.692Z,95413.47
2024-02-27T13:42:03.994Z,95404.72
2024-02-27T13:44:31.787Z,95415.09
2024-02-27T13:46:59.591Z,95411.63
2024-02-27T13:49:27.464Z,95416.13
2024-02-27T13:51:55.545Z,95414.28
2024-02-27T13:54:23.261Z,95412.44
2024-02-27T13:56:52.268Z,95418.78
2024-02-27T13:59:19.859Z,95421.72
2024-02-27T14:01:47.468Z,95418.78
2024-02-27T14:04:15.240Z,95417.50
2024-02-27T14:06:42.978Z,95422.56
2024-02-27T14:09:10.743Z,95427.63
2024-02-27T14:11:40.260Z,95427.06
2024-02-27T14:14:14.177Z,95431.59
2024-02-27T14:16:48.327Z,95432.34
2024-02-27T14:19:17.440Z,95442.72
2024-02-27T14:21:45.370Z,95436.63
2024-02-27T14:24:13.147Z,95438.75
2024-02-27T14:26:40.899Z,95436.59
2024-02-27T14:29:09.803Z,95440.56
2024-02-27T14:31:37.376Z,95442.94
2024-02-27T14:34:05.326Z,95445.53
2024-02-27T14:36:33.798Z,95441.53
2024-02-27T14:39:01.453Z,95450.06
2024-02-27T14:41:29.080Z,95448.50
2024-02-27T14:43:56.644Z,95449.63
2024-02-27T14:46:25.605Z,95448.91
2024-02-27T14:48:54.648Z,95454.53
2024-02-27T14:51:22.424Z,95457.03
2024-02-27T14:53:50.310Z,95472.78
2024-02-27T14:56:17.932Z,95463.81
2024-02-27T14:58:45.582Z,95467.63
2024-02-27T15:01:13.260Z,95481.22
2024-02-27T15:03:42.314Z,95477.25
2024-02-27T15:06:10.022Z,95483.16
2024-02-27T15:08:37.630Z,95481.84
2024-02-27T15:11:05.534Z,95488.53
2024-02-27T15:13:34.106Z,95497.66
2024-02-27T15:16:01.692Z,95501.38
2024-02-27T15:18:29.488Z,95495.81
2024-02-27T15:20:59.545Z,95502.78
2024-02-27T15:23:27.273Z,95507.56
2024-02-27T15:25:54.899Z,95517.97
2024-02-27T15:28:22.657Z,95512.91
2024-02-27T15:30:50.368Z,95521.47
2024-02-27T15:33:18.105Z,95530.53
2024-02-27T15:35:45.869Z,95524.41
2024-02-27T15:38:14.849Z,95522.00
2024-02-27T15:40:42.426Z,95531.34
2024-02-27T15:43:13.850Z,95522.56
2024-02-27T15:45:41.692Z,95528.69
2024-02-27T15:48:09.884Z,95533.22
2024-02-27T15:50:37.557Z,95536.41
2024-02-27T15:53:05.550Z,95542.28
2024-02-27T15:55:34.484Z,95540.69
2024-02-27T15:58:02.109Z,95545.75
2024-02-27T16:00:29.801Z,95554.81
2024-02-27T16:03:07.239Z,95546.03
2024-02-27T16:05:35.082Z,95547.06
2024-02-27T16:08:03.700Z,95554.81
2024-02-27T16:10:31.375Z,95555.38
2024-02-27T16:13:00.427Z,95560.69
2024-02-27T16:15:29.191Z,95561.50
2024-02-27T16:17:56.883Z,95567.09
2024-02-27T16:20:24.649Z,95562.03
2024-02-27T16:22:52.250Z,95565.75
2024-02-27T16:25:20.096Z,95570.81
2024-02-27T16:27:47.700Z,95580.41
2024-02-27T16:30:17.166Z,95582.00
2024-02-27T16:32:47.939Z,95587.88
2024-02-27T16:35:17.225Z,95590.00
2024-02-27T16:37:44.826Z,95591.06
2024-02-27T16:40:13.367Z,95596.66
2024-02-27T16:42:42.044Z,95602.28
2024-02-27T16:45:09.944Z,95607.88
2024-02-27T16:47:39.712Z,95612.66
2024-02-27T16:50:08.133Z,95615.31
2024-02-27T16:52:36.078Z,95615.31
2024-02-27T16:55:03.969Z,95623.31
2024-02-27T16:57:31.610Z,95621.16
2024-02-27T17:00:01.474Z,95624.09
2024-02-27T17:02:30.731Z,95627.00
2024-02-27T17:04:59.801Z,95639.00
2024-02-27T17:07:27.964Z,95638.47
2024-02-27T17:09:56.623Z,95643.00
2024-02-27T17:12:24.317Z,95645.66
2024-02-27T17:14:52.048Z,95652.31
2024-02-27T17:17:19.673Z,95650.69
2024-02-27T17:19:47.452Z,95660.81
2024-02-27T17:22:16.564Z,95653.06
2024-02-27T17:24:44.260Z,95659.50
2024-02-27T17:27:11.999Z,95665.09
2024-02-27T17:29:39.591Z,95670.38
2024-02-27T17:32:07.901Z,95673.03
2024-02-27T17:34:35.599Z,95682.09
2024-02-27T17:37:06.228Z,95686.88
2024-02-27T17:39:36.889Z,95682.63
2024-02-27T17:42:05.187Z,95677.56
2024-02-27T17:44:32.785Z,95677.81
2024-02-27T17:47:00.384Z,95683.94
2024-02-27T17:49:28.195Z,95687.91
2024-02-27T17:51:55.814Z,95694.84
2024-02-27T17:54:23.420Z,95693.50
2024-02-27T17:56:52.419Z,95698.53
2024-02-27T17:59:20.590Z,95702.28
2024-02-27T18:01:48.340Z,95699.06
2024-02-27T18:04:16.133Z,95706.50
2024-02-27T18:06:44.488Z,95719.25
2024-02-27T18:09:12.485Z,95709.66
2024-02-27T18:11:40.396Z,95722.44
2024-02-27T18:14:09.365Z,95720.28
2024-02-27T18:16:36.949Z,95713.59
2024-02-27T18:19:04.626Z,95725.28
2024-02-27T18:21:32.292Z,95737.28
2024-02-27T18:23:59.908Z,95733.78
2024-02-27T18:26:27.482Z,95739.13
2024-02-27T18:28:55.056Z,95737.03
2024-02-27T18:31:24.929Z,95744.50
2024-02-27T18:33:53.213Z,95751.16
2024-02-27T18:36:20.904Z,95746.94
2024-02-27T18:38:48.531Z,95743.28
2024-02-27T18:41:16.105Z,95746.78
2024-02-27T18:43:46.219Z,95743.66
2024-02-27T18:46:14.173Z,95739.66
2024-02-27T18:48:43.182Z,95742.66
2024-02-27T18:51:11.787Z,95747.75
2024-02-27T18:53:40.471Z,95759.78
2024-02-27T18:56:08.733Z,95758.75
2024-02-27T18:58:36.563Z,95760.13
2024-02-27T19:01:05.119Z,95759.06
2024-02-27T19:03:33.115Z,95760.41
2024-02-27T19:06:04.689Z,95755.66
2024-02-27T19:08:32.305Z,95762.09
2024-02-27T19:11:01.238Z,95755.69
2024-02-27T19:13:29.303Z,95757.28
2024-02-27T19:15:56.972Z,95763.69
2024-02-27T19:18:24.586Z,95770.88
2024-02-27T19:20:52.440Z,95765.03
2024-02-27T19:23:21.399Z,95763.41
2024-02-27T19:25:49.171Z,95773.56
2024-02-27T19:28:16.738Z,95771.69
2024-02-27T19:30:44.793Z,95777.03
2024-02-27T19:33:14.419Z,95783.97
2024-02-27T19:35:42.760Z,95785.03
2024-02-27T19:38:17.940Z,95784.25
2024-02-27T19:40:48.072Z,95790.09
2024-02-27T19:43:16.190Z,95790.09
2024-02-27T19:45:44.588Z,95796.50
2024-02-27T19:48:12.500Z,95795.94
2024-02-27T19:50:40.145Z,95801.28
2024-02-27T19:53:08.087Z,95804.22
2024-02-27T19:55:36.712Z,95810.63
2024-02-27T19:58:06.096Z,95814.88
2024-02-27T20:00:33.774Z,95818.06
2024-02-27T20:03:01.443Z,95824.22
2024-02-27T20:05:29.012Z,95831.91
2024-02-27T20:07:58.425Z,95830.31
2024-02-27T20:10:26.465Z,95823.63
2024-02-27T20:12:54.132Z,95828.69
2024-02-27T20:15:23.244Z,95834.81
2024-02-27T20:17:51.976Z,95846.28
2024-02-27T20:20:19.761Z,95839.88
2024-02-27T20:22:47.810Z,95837.72
2024-02-27T20:25:15.424Z,95843.06
2024-02-27T20:27:43.170Z,95842.25
2024-02-27T20:30:11.640Z,95850.25
2024-02-27T20:32:40.764Z,95846.78
2024-02-27T20:35:10.080Z,95847.53
2024-02-27T20:37:37.765Z,95856.38
2024-02-27T20:40:06.632Z,95849.66
2024-02-27T20:42:34.210Z,95852.59
2024-02-27T20:45:01.942Z,95854.47
2024-02-27T20:47:31.415Z,95854.47
2024-02-27T20:50:00.554Z,95861.88
2024-02-27T20:52:28.337Z,95866.97
2024-02-27T20:54:56.016Z,95870.72
2024-02-27T20:57:23.652Z,95858.16
2024-02-27T20:59:51.228Z,95866.66
2024-02-27T21:02:18.830Z,95870.63
2024-02-27T21:04:47.259Z,95867.41
2024-02-27T21:07:17.751Z,95866.59
2024-02-27T21:09:45.383Z,95874.31
2024-02-27T21:12:13.256Z,95874.31
2024-02-27T21:14:40.868Z,95883.63
2024-02-27T21:17:08.531Z,95878.56
2024-02-27T21:19:36.158Z,95880.66
2024-02-27T21:22:04.620Z,95888.09
2024-02-27T21:24:33.591Z,95880.63
2024-02-27T21:27:01.208Z,95884.31
2024-02-27T21:29:28.816Z,95889.13
2024-02-27T21:31:56.402Z,95892.28
2024-02-27T21:34:24.040Z,95896.81
2024-02-27T21:36:52.556Z,95897.31
2024-02-27T21:39:20.290Z,95897.56
2024-02-27T21:41:49.258Z,95903.41
2024-02-27T21:44:16.883Z,95906.31
2024-02-27T21:46:44.438Z,95905.75
2024-02-27T21:49:12.137Z,95909.47
2024-02-27T21:51:43.943Z,95907.03
2024-02-27T21:54:13.977Z,95910.22
2024-02-27T21:56:41.563Z,95901.69
2024-02-27T21:59:10.474Z,95898.44
2024-02-27T22:01:38.118Z,95900.56
2024-02-27T22:04:06.173Z,95908.00
2024-02-27T22:06:36.078Z,95908.25
2024-02-27T22:09:04.129Z,95909.31
2024-02-27T22:11:33.336Z,95907.97
2024-02-27T22:14:00.997Z,95909.81
2024-02-27T22:16:30.386Z,95915.38
2024-02-27T22:18:58.052Z,95919.38
2024-02-27T22:21:25.657Z,95916.13
2024-02-27T22:23:53.380Z,95920.09
2024-02-27T22:26:21.238Z,95915.81
2024-02-27T22:28:48.977Z,95920.59
2024-02-27T22:31:16.553Z,95924.56
2024-02-27T22:33:45.529Z,95925.59
2024-02-27T22:36:13.214Z,95926.94
2024-02-27T22:38:40.815Z,95935.97
2024-02-27T22:41:11.728Z,95934.38
2024-02-27T22:43:39.548Z,95946.31
2024-02-27T22:46:08.058Z,95946.00
2024-02-27T22:48:35.692Z,95944.38
2024-02-27T22:51:05.265Z,95949.97
2024-02-27T22:53:34.448Z,95947.31
2024-02-27T22:56:02.354Z,95954.75
2024-02-27T22:58:30.501Z,95949.91
2024-02-27T23:01:01.399Z,95954.41
2024-02-27T23:03:31.227Z,95952.00
2024-02-27T23:05:58.861Z,95955.72
2024-02-27T23:08:27.768Z,95960.47
2024-02-27T23:10:55.367Z,95956.47
2024-02-27T23:13:22.058Z,95958.31
2024-02-27T23:15:49.782Z,95954.28
2024-02-27T23:18:17.740Z,95955.34
2024-02-27T23:20:46.924Z,95954.78
2024-02-27T23:23:14.773Z,95961.16
2024-02-27T23:25:47.030Z,95965.13
2024-02-27T23:28:14.796Z,95965.38
2024-02-27T23:30:42.416Z,95973.34
2024-02-27T23:33:10.143Z,95970.13
2024-02-27T23:35:38.551Z,95974.88
2024-02-27T23:38:06.155Z,95970.59
2024-02-27T23:40:33.744Z,95974.56
2024-02-27T23:43:02.827Z,95973.75
2024-02-27T23:45:31.004Z,95977.47
2024-02-27T23:47:58.783Z,95975.06
2024-02-27T23:50:26.448Z,95984.09
2024-02-27T23:52:54.113Z,95977.38
2024-02-27T23:55:21.897Z,95977.66
2024-02-27T23:57:49.477Z,95984.03
